AirNav   ATP
 
 470 users online  

VG35 Walker Army Heliport
Fort Monroe, Virginia, USA

GOING TO FORT MONROE?


FAA INFORMATION EFFECTIVE 24 MAY 2018

Location

FAA Identifier: VG35
Lat/Long: 37-01-00.0000N / 076-18-00.0000W
37-01.000000N / 076-18.000000W
37.0166667 / -76.3000000
(estimated)
Elevation: 7 ft. / 2 m (estimated)
Variation: 10W (1990)
From city: 10 miles N of FORT MONROE, VA
Time zone: UTC -4 (UTC -5 during Standard Time)
Zip code: 23651

Heliport Operations

Heliport use: Private use. Permission required prior to landing
Activation date: 07/1992
Control tower: no
ARTCC: WASHINGTON CENTER
FSS: LEESBURG FLIGHT SERVICE STATION
Attendance: UNATNDD
OFFICIAL BUSINESS ONLY.
Segmented circle: no

Heliport Communications

WX ASOS at ORF (9 nm SE): PHONE 757-460-9348
WX ASOS at PHF (12 nm NW): PHONE 757-874-3682
WX AWOS-3PT at PVG (16 nm SW): 118.375 (757-465-2175)
WX ASOS at NTU (17 nm SE): PHONE DSN 433-3619 or 757-433-3619

Nearby radio navigation aids

VOR radial/distance  VOR name  Freq  Var
ORFr334/8.9NORFOLK VORTAC116.9007W
CCVr226/24.6CAPE CHARLES VORTAC112.2010W
HCMr150/32.5HARCUM VORTAC108.8007W
FKNr071/38.7FRANKLIN VORTAC110.6009W

 
NDB name  Hdg/Dist  Freq  Var  ID
INGLE357/10.832909WOR --- .-.
WAKEFIELD098/33.727411WAKQ .- -.- --.-

Heliport Services

Runway Information

Helipad H1

Dimensions: 35 x 35 ft. / 11 x 11 m
Surface: concrete
Traffic pattern: leftleft

Heliport Ownership and Management from official FAA records

Ownership: Privately-owned
Owner: DEPT OF ARMY HQ, DARRELL MILTON
HQ-TRA-DOC, ATTN: G-3-5-7, FLIGHT OPS
FT MONROE, VA 23651
Phone 757-788-3187
Manager: DARRELL MILTON
HQ-TRA-DOC, ATTN: G-3-5-7, FLIGHT OPS
FT MONROE, VA 23651
Phone 757-788-3187

Additional Remarks

HELICOPTER ONLY.
NUMEROUS BIRDS INVOF ARPT. DO NOT OVERFLY POST.
24 HOUR PPR FOR LDG: 757-788-3187.

Instrument Procedures

There are no published instrument procedures at VG35.

Some nearby airports with instrument procedures:

KNGU - Norfolk Naval Station (Chambers Field) (5 nm S)
KLFI - Langley Air Force Base (5 nm NW)
KORF - Norfolk International Airport (9 nm SE)
KPHF - Newport News/Williamsburg International Airport (12 nm NW)
KPVG - Hampton Roads Executive Airport (16 nm SW)
KFAF - Felker Army Airfield (16 nm NW)
KNTU - Oceana Naval Air Station (Apollo Soucek Field) (17 nm SE)
 
Loc | Ops | Rwys | IFR | FBO | Links
Com | Nav | Svcs | Stats | Notes

AirNav Hotels Sweepstakes
 
Area around VG35 (Walker Army Heliport)
 
Road maps at: MapQuest Bing Google
 
Aerial photo
No photo
 
Sectional chart

 
Airport distance calculator
Flying to Walker Army Heliport? Find the distance to fly.

From to VG35

Sunrise and sunset
Times for 26-May-2018
 Local
(UTC-4)
 Zulu
(UTC)
Morning civil twilight05:2109:21
Sunrise05:5109:51
Sunset20:1400:14
Evening civil twilight20:4400:44

Current date and time
Zulu (UTC)  26-May-2018 05:08:05
Local (UTC-4)  26-May-2018 01:08:05
 
METAR
KLFI 
4nm NW 
260456Z AUTO 29011KT 10SM CLR 24/20 A2997 RMK AO2 SLP155 T02410204 402950165
KNGU 
6nm S 
260459Z 21009KT 10SM CLR 24/19 A2999 RMK AO2 SLP154 T02390194 402940161
KORF 
8nm SE 
260451Z 22011KT 10SM CLR 24/21 A2997 RMK AO2 SLP149 T02390211 403000167
KPHF 
12nm NW 
260454Z AUTO 22012KT 10SM CLR 24/19 A2997 RMK AO2 SLP147 T02390194 403000139
KPVG 
16nm SW 
260456Z 20007KT 10SM CLR 22/20 A2999 RMK AO2 SLP156 T02220200 403000111
KFAF 
16nm W 
260456Z AUTO 22006KT 10SM CLR 24/20 A2995 RMK AO2 SLP145 T02380203 402980178 $
KNTU 
18nm SE 
260456Z 21008KT 10SM CLR 23/21 A2997 RMK AO2 SLP150 T02330211 402940144
TAF
KLFI 
4nm NW 
260100Z 2601/2707 20009KT 9999 SCT025 BKN040 QNH2996INS BECMG 2613/2614 22012KT 9999 SCT030 OVC070 QNH2988INS BECMG 2623/2624 21009KT 9000 -SHRA OVC030 QNH2993INS TX29/2618Z TN23/2609Z
KNGU 
6nm S 
2523/2623 22008KT 9999 FEW020 FEW60 SCT300 QNH2992INS TEMPO 2607/2611 8000 BR SCT015 BKN090 FM261200 23010G18KT 9999 FEW030 SCT120 SCT190 BKN280 QNH2984INS T22/2609Z T31/2619Z FN20000
KORF 
8nm SE 
252235Z 2523/2618 21012KT P6SM FEW040 FM260200 21007KT P6SM SCT200
KPHF 
12nm NW 
251723Z 2518/2618 19008KT P6SM SKC FM260500 22009KT P6SM SCT200
KFAF 
16nm W 
251806Z 2518/2624 19009KT 9999 FEW180 QNH2996INS BECMG 2602/2603 20006KT 9999 SCT025 BKN040 QNH2992INS BECMG 2607/2608 20006KT 8000 BR SCT010 BKN030 QNH2991INS BECMG 2613/2614 24012G18KT 9999 NSW SCT030 SCT070 QNH2990INS BECMG 2621/2622 24012G18KT 9000 -SHRA BKN030 BKN065 QNH2990INS TX29/2521Z TN20/2610Z LAST NO AMDS AFT 2603 NEXT 2910
KNTU 
18nm SE 
2523/2623 20008KT 9999 FEW050 SCT280 QNH2992INS FM260400 20006KT 8000 BKN030 QNH2990INS FM261100 24012G18KT 9999 BKN030 BKN080 QNH2988INS T22/2610Z T32/2619Z FN20051
NOTAMs
Click for the latest NOTAMs
NOTAMs are issued by the DoD/FAA and will open in a separate window not controlled by AirNav.

 

 
 

Would you like to see your business listed on this page?

 If your business provides an interesting product or service to pilots, flight crews, aircraft, or users of the Walker Army Heliport, you should consider listing it here.  To start the listing process, click on the button below
 
Add a business
 

Other Pages about Walker Army Heliport

Update a link
 
Copyright © AirNav, LLC. All rights reserved. Privacy Policy  Contact